sensor_id;sensor_type;location;lat;lon;timestamp;pressure;altitude;pressure_sealevel;temperature;humidity
20710;BME280;10516;51.518;9.864;2023-07-20T00:00:58;98520.13;;;18.55;73.95
20710;BME280;10516;51.518;9.864;2023-07-20T00:03:23;98510.47;;;18.40;74.60
20710;BME280;10516;51.518;9.864;2023-07-20T00:05:53;98532.03;;;18.32;74.81
20710;BME280;10516;51.518;9.864;2023-07-20T00:08:18;98520.75;;;18.16;75.57
20710;BME280;10516;51.518;9.864;2023-07-20T00:10:44;98542.78;;;18.10;76.04
20710;BME280;10516;51.518;9.864;2023-07-20T00:13:10;98528.63;;;18.04;76.00
20710;BME280;10516;51.518;9.864;2023-07-20T00:15:36;98537.41;;;18.10;76.78
20710;BME280;10516;51.518;9.864;2023-07-20T00:18:03;98521.59;;;18.03;76.76
20710;BME280;10516;51.518;9.864;2023-07-20T00:20:29;98513.59;;;17.98;77.44
20710;BME280;10516;51.518;9.864;2023-07-20T00:22:54;98507.78;;;18.05;77.51
20710;BME280;10516;51.518;9.864;2023-07-20T00:25:20;98515.69;;;18.15;77.01
20710;BME280;10516;51.518;9.864;2023-07-20T00:27:45;98523.00;;;18.01;77.52
20710;BME280;10516;51.518;9.864;2023-07-20T00:30:11;98539.38;;;17.68;78.64
20710;BME280;10516;51.518;9.864;2023-07-20T00:32:36;98526.97;;;17.27;79.49
20710;BME280;10516;51.518;9.864;2023-07-20T00:35:02;98529.34;;;17.82;77.52
20710;BME280;10516;51.518;9.864;2023-07-20T00:37:27;98512.44;;;17.90;77.33
20710;BME280;10516;51.518;9.864;2023-07-20T00:39:54;98519.81;;;17.98;76.39
20710;BME280;10516;51.518;9.864;2023-07-20T00:42:19;98515.59;;;18.06;76.14
20710;BME280;10516;51.518;9.864;2023-07-20T00:44:45;98503.44;;;17.95;76.12
20710;BME280;10516;51.518;9.864;2023-07-20T00:47:10;98529.81;;;17.98;76.34
20710;BME280;10516;51.518;9.864;2023-07-20T00:49:36;98535.44;;;18.02;76.12
20710;BME280;10516;51.518;9.864;2023-07-20T00:52:03;98507.81;;;17.91;76.02
20710;BME280;10516;51.518;9.864;2023-07-20T00:54:31;98519.22;;;18.02;76.27
20710;BME280;10516;51.518;9.864;2023-07-20T00:56:56;98523.00;;;18.01;76.49
20710;BME280;10516;51.518;9.864;2023-07-20T00:59:23;98502.13;;;17.92;75.79
20710;BME280;10516;51.518;9.864;2023-07-20T01:01:49;98497.66;;;17.74;77.08
20710;BME280;10516;51.518;9.864;2023-07-20T01:04:14;98502.09;;;17.70;77.00
20710;BME280;10516;51.518;9.864;2023-07-20T01:07:03;98510.00;;;17.67;77.47
20710;BME280;10516;51.518;9.864;2023-07-20T01:10:19;98500.69;;;17.59;77.40
20710;BME280;10516;51.518;9.864;2023-07-20T01:12:35;98499.91;;;17.59;77.35
20710;BME280;10516;51.518;9.864;2023-07-20T01:15:01;98500.69;;;17.46;77.58
20710;BME280;10516;51.518;9.864;2023-07-20T01:17:27;98502.88;;;17.30;78.74
20710;BME280;10516;51.518;9.864;2023-07-20T01:19:52;98504.88;;;17.52;77.62
20710;BME280;10516;51.518;9.864;2023-07-20T01:31:23;98509.16;;;16.53;81.67
20710;BME280;10516;51.518;9.864;2023-07-20T01:33:50;98502.88;;;17.30;79.04
20710;BME280;10516;51.518;9.864;2023-07-20T01:36:18;98508.59;;;17.29;78.51
20710;BME280;10516;51.518;9.864;2023-07-20T01:38:45;98502.56;;;17.45;77.74
20710;BME280;10516;51.518;9.864;2023-07-20T01:41:11;98510.38;;;17.33;78.26
20710;BME280;10516;51.518;9.864;2023-07-20T01:43:37;98508.19;;;17.08;78.97
20710;BME280;10516;51.518;9.864;2023-07-20T01:46:02;98494.59;;;16.86;78.88
20710;BME280;10516;51.518;9.864;2023-07-20T01:48:28;98506.28;;;16.95;79.18
20710;BME280;10516;51.518;9.864;2023-07-20T01:50:53;98508.88;;;17.27;78.33
20710;BME280;10516;51.518;9.864;2023-07-20T01:53:20;98496.69;;;17.16;77.98
20710;BME280;10516;51.518;9.864;2023-07-20T01:55:45;98520.59;;;17.36;77.36
20710;BME280;10516;51.518;9.864;2023-07-20T01:58:10;98517.88;;;17.09;77.81
20710;BME280;10516;51.518;9.864;2023-07-20T02:00:39;98515.22;;;16.77;79.43
20710;BME280;10516;51.518;9.864;2023-07-20T02:03:04;98507.84;;;16.50;80.30
20710;BME280;10516;51.518;9.864;2023-07-20T02:05:30;98511.69;;;16.95;78.65
20710;BME280;10516;51.518;9.864;2023-07-20T02:07:55;98519.59;;;17.18;78.19
20710;BME280;10516;51.518;9.864;2023-07-20T02:10:21;98531.03;;;16.97;78.98
20710;BME280;10516;51.518;9.864;2023-07-20T02:12:46;98517.84;;;16.82;79.00
20710;BME280;10516;51.518;9.864;2023-07-20T02:15:14;98531.06;;;16.46;80.98
20710;BME280;10516;51.518;9.864;2023-07-20T02:17:41;98509.50;;;15.77;83.85
20710;BME280;10516;51.518;9.864;2023-07-20T02:20:08;98534.00;;;15.94;83.85
20710;BME280;10516;51.518;9.864;2023-07-20T02:22:37;98536.53;;;16.60;81.80
20710;BME280;10516;51.518;9.864;2023-07-20T02:25:06;98534.44;;;16.38;81.43
20710;BME280;10516;51.518;9.864;2023-07-20T02:27:32;98533.97;;;16.49;81.25
20710;BME280;10516;51.518;9.864;2023-07-20T02:29:58;98544.00;;;16.81;80.83
20710;BME280;10516;51.518;9.864;2023-07-20T02:32:23;98542.22;;;17.04;79.35
20710;BME280;10516;51.518;9.864;2023-07-20T02:34:49;98538.41;;;16.91;79.87
20710;BME280;10516;51.518;9.864;2023-07-20T02:37:16;98533.31;;;16.90;80.17
20710;BME280;10516;51.518;9.864;2023-07-20T02:39:41;98514.84;;;16.32;81.90
20710;BME280;10516;51.518;9.864;2023-07-20T02:42:07;98525.81;;;16.87;80.80
20710;BME280;10516;51.518;9.864;2023-07-20T02:44:32;98515.81;;;16.74;80.00
20710;BME280;10516;51.518;9.864;2023-07-20T02:46:57;98522.47;;;16.95;80.07
20710;BME280;10516;51.518;9.864;2023-07-20T02:49:23;98518.66;;;17.09;79.32
20710;BME280;10516;51.518;9.864;2023-07-20T02:51:48;98527.25;;;17.39;78.75
20710;BME280;10516;51.518;9.864;2023-07-20T02:54:14;98527.94;;;17.17;79.25
20710;BME280;10516;51.518;9.864;2023-07-20T02:56:39;98530.34;;;17.32;78.30
20710;BME280;10516;51.518;9.864;2023-07-20T02:59:05;98538.25;;;17.29;78.85
20710;BME280;10516;51.518;9.864;2023-07-20T03:01:30;98526.78;;;17.23;79.04
20710;BME280;10516;51.518;9.864;2023-07-20T03:03:56;98507.88;;;16.96;78.95
20710;BME280;10516;51.518;9.864;2023-07-20T03:06:21;98518.28;;;17.16;78.70
20710;BME280;10516;51.518;9.864;2023-07-20T03:08:47;98517.47;;;17.29;77.86
20710;BME280;10516;51.518;9.864;2023-07-20T03:11:17;98502.38;;;17.01;78.63
20710;BME280;10516;51.518;9.864;2023-07-20T03:13:43;98516.94;;;17.00;79.34
20710;BME280;10516;51.518;9.864;2023-07-20T03:16:13;98508.97;;;17.22;78.30
20710;BME280;10516;51.518;9.864;2023-07-20T03:18:40;98511.56;;;17.13;78.37
20710;BME280;10516;51.518;9.864;2023-07-20T03:21:08;98521.47;;;17.18;78.58
20710;BME280;10516;51.518;9.864;2023-07-20T03:23:34;98530.88;;;17.20;78.64
20710;BME280;10516;51.518;9.864;2023-07-20T03:26:00;98518.59;;;17.14;77.87
20710;BME280;10516;51.518;9.864;2023-07-20T03:28:25;98511.19;;;17.20;77.71
20710;BME280;10516;51.518;9.864;2023-07-20T03:30:55;98522.06;;;17.29;78.05
20710;BME280;10516;51.518;9.864;2023-07-20T03:33:22;98524.06;;;17.37;77.31
20710;BME280;10516;51.518;9.864;2023-07-20T03:35:47;98523.88;;;17.19;78.03
20710;BME280;10516;51.518;9.864;2023-07-20T03:38:12;98513.34;;;16.91;79.04
20710;BME280;10516;51.518;9.864;2023-07-20T03:40:38;98507.81;;;16.69;79.71
20710;BME280;10516;51.518;9.864;2023-07-20T03:43:03;98518.88;;;17.13;79.14
20710;BME280;10516;51.518;9.864;2023-07-20T03:45:28;98503.53;;;16.49;80.78
20710;BME280;10516;51.518;9.864;2023-07-20T03:47:54;98525.19;;;16.76;80.17
20710;BME280;10516;51.518;9.864;2023-07-20T03:50:19;98513.94;;;16.56;80.70
20710;BME280;10516;51.518;9.864;2023-07-20T03:52:44;98538.81;;;16.98;79.94
20710;BME280;10516;51.518;9.864;2023-07-20T03:55:10;98520.75;;;16.34;81.49
20710;BME280;10516;51.518;9.864;2023-07-20T03:57:35;98532.97;;;16.45;81.81
20710;BME280;10516;51.518;9.864;2023-07-20T04:00:00;98531.44;;;16.58;81.45
20710;BME280;10516;51.518;9.864;2023-07-20T04:02:26;98526.41;;;16.52;80.99
20710;BME280;10516;51.518;9.864;2023-07-20T04:04:51;98506.03;;;16.45;80.71
20710;BME280;10516;51.518;9.864;2023-07-20T04:07:17;98506.34;;;16.76;80.03
20710;BME280;10516;51.518;9.864;2023-07-20T04:09:42;98530.53;;;17.08;79.49
20710;BME280;10516;51.518;9.864;2023-07-20T04:12:07;98536.81;;;17.04;79.09
20710;BME280;10516;51.518;9.864;2023-07-20T04:14:33;98519.88;;;16.71;80.25
20710;BME280;10516;51.518;9.864;2023-07-20T04:16:58;98525.25;;;17.03;79.08
20710;BME280;10516;51.518;9.864;2023-07-20T04:19:25;98533.84;;;17.05;79.46
20710;BME280;10516;51.518;9.864;2023-07-20T04:21:51;98529.56;;;17.18;79.01
20710;BME280;10516;51.518;9.864;2023-07-20T04:24:16;98532.47;;;17.08;79.46
20710;BME280;10516;51.518;9.864;2023-07-20T04:26:41;98535.25;;;17.03;79.68
20710;BME280;10516;51.518;9.864;2023-07-20T04:29:07;98530.41;;;16.73;80.57
20710;BME280;10516;51.518;9.864;2023-07-20T04:31:32;98519.03;;;16.89;79.46
20710;BME280;10516;51.518;9.864;2023-07-20T04:33:58;98522.47;;;16.95;80.02
20710;BME280;10516;51.518;9.864;2023-07-20T04:36:23;98519.47;;;17.10;78.92
20710;BME280;10516;51.518;9.864;2023-07-20T04:38:49;98533.25;;;17.22;78.95
20710;BME280;10516;51.518;9.864;2023-07-20T04:41:14;98536.16;;;17.12;79.69
20710;BME280;10516;51.518;9.864;2023-07-20T04:43:44;98540.94;;;17.01;79.93
20710;BME280;10516;51.518;9.864;2023-07-20T04:46:10;98538.06;;;17.11;79.32
20710;BME280;10516;51.518;9.864;2023-07-20T04:48:36;98536.66;;;17.14;79.17
20710;BME280;10516;51.518;9.864;2023-07-20T04:51:02;98512.25;;;17.19;78.86
20710;BME280;10516;51.518;9.864;2023-07-20T04:53:28;98518.88;;;17.27;78.94
20710;BME280;10516;51.518;9.864;2023-07-20T04:55:53;98513.28;;;17.09;79.15
20710;BME280;10516;51.518;9.864;2023-07-20T04:58:21;98527.97;;;17.31;78.44
20710;BME280;10516;51.518;9.864;2023-07-20T05:00:48;98538.75;;;17.31;79.29
20710;BME280;10516;51.518;9.864;2023-07-20T05:03:13;98528.19;;;17.34;78.66
20710;BME280;10516;51.518;9.864;2023-07-20T05:05:39;98536.88;;;17.31;78.85
20710;BME280;10516;51.518;9.864;2023-07-20T05:08:04;98518.66;;;16.96;80.11
20710;BME280;10516;51.518;9.864;2023-07-20T05:10:30;98534.38;;;17.21;79.33
20710;BME280;10516;51.518;9.864;2023-07-20T05:12:55;98529.16;;;17.11;79.93
20710;BME280;10516;51.518;9.864;2023-07-20T05:15:20;98532.84;;;17.15;79.73
20710;BME280;10516;51.518;9.864;2023-07-20T05:17:46;98539.66;;;17.26;78.88
20710;BME280;10516;51.518;9.864;2023-07-20T05:20:14;98537.34;;;17.19;78.76
20710;BME280;10516;51.518;9.864;2023-07-20T05:22:39;98547.56;;;17.36;78.58
20710;BME280;10516;51.518;9.864;2023-07-20T05:25:09;98532.06;;;17.28;78.98
20710;BME280;10516;51.518;9.864;2023-07-20T05:27:36;98542.44;;;17.35;78.63
20710;BME280;10516;51.518;9.864;2023-07-20T05:30:02;98531.06;;;17.24;78.59
20710;BME280;10516;51.518;9.864;2023-07-20T05:32:28;98539.47;;;17.22;78.30
20710;BME280;10516;51.518;9.864;2023-07-20T05:34:54;98530.13;;;16.88;81.05
20710;BME280;10516;51.518;9.864;2023-07-20T05:37:19;98524.47;;;17.03;79.80
20710;BME280;10516;51.518;9.864;2023-07-20T05:39:45;98538.63;;;17.08;80.27
20710;BME280;10516;51.518;9.864;2023-07-20T05:42:10;98533.13;;;17.00;81.23
20710;BME280;10516;51.518;9.864;2023-07-20T05:44:35;98530.47;;;17.13;80.15
20710;BME280;10516;51.518;9.864;2023-07-20T05:47:01;98537.94;;;17.30;79.55
20710;BME280;10516;51.518;9.864;2023-07-20T05:49:27;98529.56;;;17.18;80.34
20710;BME280;10516;51.518;9.864;2023-07-20T05:51:53;98543.56;;;17.34;80.03
20710;BME280;10516;51.518;9.864;2023-07-20T05:54:19;98550.38;;;17.45;79.27
20710;BME280;10516;51.518;9.864;2023-07-20T05:56:45;98553.47;;;17.38;79.56
20710;BME280;10516;51.518;9.864;2023-07-20T05:59:11;98553.84;;;17.45;79.55
20710;BME280;10516;51.518;9.864;2023-07-20T06:01:36;98545.06;;;17.40;79.64
20710;BME280;10516;51.518;9.864;2023-07-20T06:04:01;98565.16;;;17.47;79.99
20710;BME280;10516;51.518;9.864;2023-07-20T06:06:28;98560.94;;;17.41;80.07
20710;BME280;10516;51.518;9.864;2023-07-20T06:08:54;98561.88;;;17.50;80.27
20710;BME280;10516;51.518;9.864;2023-07-20T06:11:19;98560.53;;;17.48;79.68
20710;BME280;10516;51.518;9.864;2023-07-20T06:13:45;98562.97;;;17.63;79.66
20710;BME280;10516;51.518;9.864;2023-07-20T06:16:10;98549.53;;;17.17;81.67
20710;BME280;10516;51.518;9.864;2023-07-20T06:18:36;98560.25;;;17.49;79.67
20710;BME280;10516;51.518;9.864;2023-07-20T06:21:01;98565.28;;;17.56;80.36
20710;BME280;10516;51.518;9.864;2023-07-20T06:23:27;98562.06;;;17.40;80.98
20710;BME280;10516;51.518;9.864;2023-07-20T06:25:52;98561.75;;;17.42;80.71
20710;BME280;10516;51.518;9.864;2023-07-20T06:28:18;98558.34;;;17.36;79.82
20710;BME280;10516;51.518;9.864;2023-07-20T06:30:43;98558.66;;;17.21;81.34
20710;BME280;10516;51.518;9.864;2023-07-20T06:33:09;98562.53;;;17.29;80.60
20710;BME280;10516;51.518;9.864;2023-07-20T06:35:34;98555.16;;;17.20;81.20
20710;BME280;10516;51.518;9.864;2023-07-20T06:38:01;98563.44;;;17.24;81.67
20710;BME280;10516;51.518;9.864;2023-07-20T06:40:30;98541.44;;;17.17;81.22
20710;BME280;10516;51.518;9.864;2023-07-20T06:42:55;98550.25;;;17.22;81.06
20710;BME280;10516;51.518;9.864;2023-07-20T06:45:21;98552.22;;;17.17;81.71
20710;BME280;10516;51.518;9.864;2023-07-20T06:47:46;98563.63;;;17.14;81.80
20710;BME280;10516;51.518;9.864;2023-07-20T06:50:12;98571.09;;;17.17;81.09
20710;BME280;10516;51.518;9.864;2023-07-20T06:52:37;98575.72;;;17.16;82.30
20710;BME280;10516;51.518;9.864;2023-07-20T06:55:03;98574.31;;;17.05;81.79
20710;BME280;10516;51.518;9.864;2023-07-20T06:57:29;98559.94;;;17.10;81.72
20710;BME280;10516;51.518;9.864;2023-07-20T06:59:54;98577.00;;;17.19;81.07
20710;BME280;10516;51.518;9.864;2023-07-20T07:02:19;98575.34;;;17.23;80.90
20710;BME280;10516;51.518;9.864;2023-07-20T07:04:45;98584.44;;;17.27;80.81
20710;BME280;10516;51.518;9.864;2023-07-20T07:07:14;98588.94;;;17.32;81.06
20710;BME280;10516;51.518;9.864;2023-07-20T07:09:39;98591.81;;;17.35;80.92
20710;BME280;10516;51.518;9.864;2023-07-20T07:12:05;98573.63;;;17.27;80.28
20710;BME280;10516;51.518;9.864;2023-07-20T07:14:30;98587.78;;;17.05;81.44
20710;BME280;10516;51.518;9.864;2023-07-20T07:16:56;98592.69;;;17.03;81.89
20710;BME280;10516;51.518;9.864;2023-07-20T07:19:21;98600.19;;;17.20;81.07
20710;BME280;10516;51.518;9.864;2023-07-20T07:21:46;98597.72;;;16.91;82.80
20710;BME280;10516;51.518;9.864;2023-07-20T07:24:12;98611.25;;;16.54;83.80
20710;BME280;10516;51.518;9.864;2023-07-20T07:26:37;98611.44;;;16.95;82.61
20710;BME280;10516;51.518;9.864;2023-07-20T07:29:03;98601.22;;;16.60;82.79
20710;BME280;10516;51.518;9.864;2023-07-20T07:31:29;98607.81;;;16.86;82.57
20710;BME280;10516;51.518;9.864;2023-07-20T07:33:55;98589.09;;;16.38;84.07
20710;BME280;10516;51.518;9.864;2023-07-20T07:36:21;98610.25;;;17.01;81.67
20710;BME280;10516;51.518;9.864;2023-07-20T07:38:46;98607.38;;;16.79;82.77
20710;BME280;10516;51.518;9.864;2023-07-20T07:41:11;98611.06;;;16.83;82.28
20710;BME280;10516;51.518;9.864;2023-07-20T07:43:37;98628.47;;;16.34;84.71
20710;BME280;10516;51.518;9.864;2023-07-20T07:46:03;98599.53;;;16.96;81.87
20710;BME280;10516;51.518;9.864;2023-07-20T07:48:29;98595.09;;;16.86;81.42
20710;BME280;10516;51.518;9.864;2023-07-20T07:50:55;98628.56;;;17.17;80.95
20710;BME280;10516;51.518;9.864;2023-07-20T07:53:20;98603.16;;;17.05;81.09
20710;BME280;10516;51.518;9.864;2023-07-20T07:55:47;98634.75;;;16.86;82.41
20710;BME280;10516;51.518;9.864;2023-07-20T07:58:13;98623.53;;;16.79;82.84
20710;BME280;10516;51.518;9.864;2023-07-20T08:00:39;98623.13;;;17.04;81.29
20710;BME280;10516;51.518;9.864;2023-07-20T08:03:06;98636.88;;;17.21;80.93
20710;BME280;10516;51.518;9.864;2023-07-20T08:05:33;98646.97;;;17.29;81.00
20710;BME280;10516;51.518;9.864;2023-07-20T08:07:58;98631.72;;;17.06;82.60
20710;BME280;10516;51.518;9.864;2023-07-20T08:10:24;98630.94;;;17.19;81.55
20710;BME280;10516;51.518;9.864;2023-07-20T08:12:49;98649.06;;;17.32;81.57
20710;BME280;10516;51.518;9.864;2023-07-20T08:15:14;98642.75;;;17.55;79.97
20710;BME280;10516;51.518;9.864;2023-07-20T08:17:43;98644.75;;;17.63;80.13
20710;BME280;10516;51.518;9.864;2023-07-20T08:20:09;98654.84;;;17.58;80.17
20710;BME280;10516;51.518;9.864;2023-07-20T08:22:37;98641.44;;;17.53;80.05
20710;BME280;10516;51.518;9.864;2023-07-20T08:25:03;98647.94;;;17.79;78.04
20710;BME280;10516;51.518;9.864;2023-07-20T08:27:29;98649.31;;;17.49;80.65
20710;BME280;10516;51.518;9.864;2023-07-20T08:29:54;98662.25;;;17.66;80.14
20710;BME280;10516;51.518;9.864;2023-07-20T08:32:19;98667.06;;;17.69;79.91
20710;BME280;10516;51.518;9.864;2023-07-20T08:34:45;98664.28;;;17.42;81.34
20710;BME280;10516;51.518;9.864;2023-07-20T08:37:10;98670.44;;;17.74;80.20
20710;BME280;10516;51.518;9.864;2023-07-20T08:39:35;98668.88;;;17.73;80.00
20710;BME280;10516;51.518;9.864;2023-07-20T08:42:01;98665.97;;;17.97;78.22
20710;BME280;10516;51.518;9.864;2023-07-20T08:44:29;98669.66;;;18.01;77.94
20710;BME280;10516;51.518;9.864;2023-07-20T08:46:57;98661.06;;;17.85;78.16
20710;BME280;10516;51.518;9.864;2023-07-20T08:49:24;98671.53;;;17.87;78.51
20710;BME280;10516;51.518;9.864;2023-07-20T08:51:51;98681.56;;;17.86;78.86
20710;BME280;10516;51.518;9.864;2023-07-20T08:54:17;98672.34;;;17.87;77.99
20710;BME280;10516;51.518;9.864;2023-07-20T08:56:45;98687.34;;;17.93;78.49
20710;BME280;10516;51.518;9.864;2023-07-20T08:59:12;98675.97;;;17.96;77.54
20710;BME280;10516;51.518;9.864;2023-07-20T09:01:39;98689.16;;;17.98;78.21
20710;BME280;10516;51.518;9.864;2023-07-20T09:04:04;98677.44;;;18.03;77.45
20710;BME280;10516;51.518;9.864;2023-07-20T09:06:30;98674.47;;;18.04;77.18
20710;BME280;10516;51.518;9.864;2023-07-20T09:08:55;98682.66;;;18.13;77.73
20710;BME280;10516;51.518;9.864;2023-07-20T09:11:21;98682.06;;;18.16;77.75
20710;BME280;10516;51.518;9.864;2023-07-20T09:13:46;98684.16;;;18.05;78.33
20710;BME280;10516;51.518;9.864;2023-07-20T09:16:15;98682.94;;;17.70;79.06
20710;BME280;10516;51.518;9.864;2023-07-20T09:18:41;98677.53;;;17.97;78.16
20710;BME280;10516;51.518;9.864;2023-07-20T09:21:06;98676.97;;;18.01;78.01
20710;BME280;10516;51.518;9.864;2023-07-20T09:23:37;98675.25;;;18.05;78.64
20710;BME280;10516;51.518;9.864;2023-07-20T09:26:10;98677.94;;;17.64;78.61
20710;BME280;10516;51.518;9.864;2023-07-20T09:28:51;98680.25;;;17.70;77.53
20710;BME280;10516;51.518;9.864;2023-07-20T09:31:21;98675.88;;;18.02;77.28
20710;BME280;10516;51.518;9.864;2023-07-20T09:33:48;98683.25;;;18.23;76.69
20710;BME280;10516;51.518;9.864;2023-07-20T09:36:14;98688.75;;;18.45;75.36
20710;BME280;10516;51.518;9.864;2023-07-20T09:38:41;98698.16;;;18.48;75.17
20710;BME280;10516;51.518;9.864;2023-07-20T09:41:06;98690.13;;;18.43;75.52
20710;BME280;10516;51.518;9.864;2023-07-20T09:43:33;98708.56;;;18.41;75.84
20710;BME280;10516;51.518;9.864;2023-07-20T09:45:59;98706.38;;;18.56;75.08
20710;BME280;10516;51.518;9.864;2023-07-20T09:48:25;98701.75;;;18.30;75.58
20710;BME280;10516;51.518;9.864;2023-07-20T09:50:52;98702.19;;;18.73;74.35
20710;BME280;10516;51.518;9.864;2023-07-20T09:53:18;98701.56;;;18.53;75.47
20710;BME280;10516;51.518;9.864;2023-07-20T09:55:47;98694.50;;;18.66;74.94
20710;BME280;10516;51.518;9.864;2023-07-20T09:58:14;98685.09;;;18.63;74.60
20710;BME280;10516;51.518;9.864;2023-07-20T10:00:41;98699.03;;;18.93;73.43
20710;BME280;10516;51.518;9.864;2023-07-20T10:03:18;98709.53;;;18.94;73.36
20710;BME280;10516;51.518;9.864;2023-07-20T10:06:06;98710.41;;;19.03;72.90
20710;BME280;10516;51.518;9.864;2023-07-20T10:08:37;98708.94;;;18.97;73.31
20710;BME280;10516;51.518;9.864;2023-07-20T10:11:05;98707.22;;;18.65;74.39
20710;BME280;10516;51.518;9.864;2023-07-20T10:13:37;98702.56;;;18.93;73.24
20710;BME280;10516;51.518;9.864;2023-07-20T10:16:18;98694.72;;;18.69;75.28
20710;BME280;10516;51.518;9.864;2023-07-20T10:18:53;98704.50;;;18.79;73.34
20710;BME280;10516;51.518;9.864;2023-07-20T10:21:21;98695.53;;;18.43;69.87
20710;BME280;10516;51.518;9.864;2023-07-20T10:23:49;98690.75;;;18.89;73.20
20710;BME280;10516;51.518;9.864;2023-07-20T10:26:15;98681.44;;;18.82;72.62
20710;BME280;10516;51.518;9.864;2023-07-20T10:28:41;98685.38;;;19.20;70.65
20710;BME280;10516;51.518;9.864;2023-07-20T10:31:12;98686.25;;;19.29;70.74
20710;BME280;10516;51.518;9.864;2023-07-20T10:33:38;98669.72;;;19.30;69.30
20710;BME280;10516;51.518;9.864;2023-07-20T10:36:05;98689.59;;;19.26;69.84
20710;BME280;10516;51.518;9.864;2023-07-20T10:43:44;98671.78;;;19.95;67.29
20710;BME280;10516;51.518;9.864;2023-07-20T10:46:11;98670.25;;;20.02;65.67
20710;BME280;10516;51.518;9.864;2023-07-20T10:49:01;98676.09;;;20.27;65.51
20710;BME280;10516;51.518;9.864;2023-07-20T10:51:28;98671.22;;;20.15;65.50
20710;BME280;10516;51.518;9.864;2023-07-20T10:53:55;98686.59;;;20.28;65.30
20710;BME280;10516;51.518;9.864;2023-07-20T10:56:23;98687.34;;;20.20;64.91
20710;BME280;10516;51.518;9.864;2023-07-20T10:58:56;98680.06;;;20.29;65.24
20710;BME280;10516;51.518;9.864;2023-07-20T11:01:27;98681.84;;;20.03;63.86
20710;BME280;10516;51.518;9.864;2023-07-20T11:03:57;98672.16;;;20.10;65.54
20710;BME280;10516;51.518;9.864;2023-07-20T11:11:36;98682.66;;;20.03;62.87
20710;BME280;10516;51.518;9.864;2023-07-20T11:14:04;98689.81;;;20.39;62.29
20710;BME280;10516;51.518;9.864;2023-07-20T11:16:45;98684.91;;;20.66;60.80
20710;BME280;10516;51.518;9.864;2023-07-20T11:19:19;98674.84;;;20.58;60.96
20710;BME280;10516;51.518;9.864;2023-07-20T11:21:47;98675.19;;;20.91;59.25
20710;BME280;10516;51.518;9.864;2023-07-20T11:24:14;98677.25;;;21.03;59.46
20710;BME280;10516;51.518;9.864;2023-07-20T11:26:44;98682.84;;;21.23;58.96
20710;BME280;10516;51.518;9.864;2023-07-20T11:29:11;98676.44;;;21.28;58.36
20710;BME280;10516;51.518;9.864;2023-07-20T11:31:38;98691.44;;;21.51;57.84
20710;BME280;10516;51.518;9.864;2023-07-20T11:34:04;98691.09;;;21.52;57.11
20710;BME280;10516;51.518;9.864;2023-07-20T11:36:29;98685.91;;;21.77;55.60
20710;BME280;10516;51.518;9.864;2023-07-20T11:38:55;98682.38;;;21.85;54.11
20710;BME280;10516;51.518;9.864;2023-07-20T11:41:20;98676.78;;;21.90;54.77
20710;BME280;10516;51.518;9.864;2023-07-20T11:43:47;98686.84;;;21.81;54.39
20710;BME280;10516;51.518;9.864;2023-07-20T11:46:12;98671.78;;;22.00;56.49
20710;BME280;10516;51.518;9.864;2023-07-20T11:48:38;98664.19;;;22.14;51.35
20710;BME280;10516;51.518;9.864;2023-07-20T11:51:05;98676.47;;;22.20;54.45
20710;BME280;10516;51.518;9.864;2023-07-20T11:53:31;98679.38;;;21.86;53.24
20710;BME280;10516;51.518;9.864;2023-07-20T11:55:58;98671.44;;;22.02;54.45
20710;BME280;10516;51.518;9.864;2023-07-20T11:58:24;98670.00;;;22.04;51.96
20710;BME280;10516;51.518;9.864;2023-07-20T12:00:49;98660.91;;;22.50;53.26
20710;BME280;10516;51.518;9.864;2023-07-20T12:03:15;98677.53;;;21.99;50.58
20710;BME280;10516;51.518;9.864;2023-07-20T12:05:40;98668.75;;;21.47;54.22
20710;BME280;10516;51.518;9.864;2023-07-20T12:08:06;98666.53;;;22.24;54.64
20710;BME280;10516;51.518;9.864;2023-07-20T12:10:32;98661.25;;;21.99;54.81
20710;BME280;10516;51.518;9.864;2023-07-20T12:13:02;98659.06;;;22.13;52.85
20710;BME280;10516;51.518;9.864;2023-07-20T12:15:32;98662.50;;;22.30;52.71
20710;BME280;10516;51.518;9.864;2023-07-20T12:18:01;98673.66;;;22.37;51.04
20710;BME280;10516;51.518;9.864;2023-07-20T12:20:34;98661.94;;;22.87;52.14
20710;BME280;10516;51.518;9.864;2023-07-20T12:25:48;98657.50;;;23.03;50.45
20710;BME280;10516;51.518;9.864;2023-07-20T12:28:15;98652.88;;;23.16;51.00
20710;BME280;10516;51.518;9.864;2023-07-20T12:30:43;98658.31;;;23.16;51.25
20710;BME280;10516;51.518;9.864;2023-07-20T12:33:09;98654.94;;;23.19;50.70
20710;BME280;10516;51.518;9.864;2023-07-20T12:35:35;98653.34;;;23.18;50.63
20710;BME280;10516;51.518;9.864;2023-07-20T12:40:25;98647.28;;;23.33;49.82
20710;BME280;10516;51.518;9.864;2023-07-20T12:42:51;98644.72;;;23.16;50.77
20710;BME280;10516;51.518;9.864;2023-07-20T12:45:16;98654.03;;;23.15;46.77
20710;BME280;10516;51.518;9.864;2023-07-20T12:47:42;98650.81;;;23.33;46.40
20710;BME280;10516;51.518;9.864;2023-07-20T12:50:12;98655.31;;;22.96;48.19
20710;BME280;10516;51.518;9.864;2023-07-20T12:52:38;98658.94;;;23.66;49.19
20710;BME280;10516;51.518;9.864;2023-07-20T12:55:05;98642.72;;;23.69;48.31
20710;BME280;10516;51.518;9.864;2023-07-20T12:57:31;98639.38;;;23.40;49.12
20710;BME280;10516;51.518;9.864;2023-07-20T12:59:56;98626.28;;;23.33;47.78
20710;BME280;10516;51.518;9.864;2023-07-20T13:02:21;98644.31;;;22.93;50.53
20710;BME280;10516;51.518;9.864;2023-07-20T13:04:47;98649.41;;;22.74;50.81
20710;BME280;10516;51.518;9.864;2023-07-20T13:07:12;98651.47;;;22.56;49.48
20710;BME280;10516;51.518;9.864;2023-07-20T13:09:37;98636.22;;;22.34;51.12
20710;BME280;10516;51.518;9.864;2023-07-20T13:12:03;98646.69;;;22.24;51.73
20710;BME280;10516;51.518;9.864;2023-07-20T13:14:28;98647.53;;;22.16;49.16
20710;BME280;10516;51.518;9.864;2023-07-20T13:16:55;98642.88;;;22.46;48.31
20710;BME280;10516;51.518;9.864;2023-07-20T13:19:21;98638.78;;;22.81;47.64
20710;BME280;10516;51.518;9.864;2023-07-20T13:21:46;98633.81;;;23.16;47.59